createdAt,value
2023-03-26T00:02:55.096Z,1.60
2023-03-26T00:08:00.822Z,1.40
2023-03-26T00:13:07.897Z,1.33
2023-03-26T00:18:13.798Z,1.63
2023-03-26T00:23:19.428Z,1.20
2023-03-26T00:28:26.435Z,1.53
2023-03-26T00:33:32.684Z,1.53
2023-03-26T00:38:39.593Z,1.40
2023-03-26T00:43:48.558Z,1.27
2023-03-26T00:48:54.632Z,1.83
2023-03-26T00:54:00.958Z,1.93
2023-03-26T00:59:06.941Z,1.50
2023-03-26T01:04:28.931Z,1.60
2023-03-26T01:09:37.849Z,1.50
2023-03-26T01:14:44.186Z,1.00
2023-03-26T01:20:04.865Z,0.90
2023-03-26T01:25:10.559Z,0.90
2023-03-26T01:30:28.031Z,1.27
2023-03-26T01:35:39.683Z,1.30
2023-03-26T01:40:54.320Z,1.10
2023-03-26T01:46:03.693Z,1.10
2023-03-26T01:51:11.038Z,1.10
2023-03-26T01:56:22.578Z,1.77
2023-03-26T02:01:46.502Z,1.63
2023-03-26T02:07:11.679Z,1.20
2023-03-26T02:12:18.754Z,1.40
2023-03-26T02:17:24.587Z,1.10
2023-03-26T02:22:30.276Z,1.20
2023-03-26T02:27:36.917Z,1.17
2023-03-26T02:32:44.288Z,1.37
2023-03-26T02:37:51.094Z,1.07
2023-03-26T02:42:58.851Z,1.10
2023-03-26T02:48:05.889Z,1.20
2023-03-26T02:53:31.503Z,0.90
2023-03-26T02:58:53.515Z,1.43
2023-03-26T03:04:00.819Z,0.97
2023-03-26T03:09:10.737Z,1.07
2023-03-26T03:14:17.861Z,1.27
2023-03-26T03:19:23.347Z,1.00
2023-03-26T03:24:28.840Z,1.70
2023-03-26T03:29:34.460Z,1.40
2023-03-26T03:34:51.260Z,1.10
2023-03-26T03:39:57.147Z,1.40
2023-03-26T03:45:04.691Z,1.23
2023-03-26T03:50:27.305Z,1.10
2023-03-26T03:55:34.421Z,1.47
2023-03-26T04:00:41.794Z,1.47
2023-03-26T04:05:55.663Z,1.50
2023-03-26T04:11:02.736Z,1.40
2023-03-26T04:16:26.245Z,1.83
2023-03-26T04:21:32.134Z,1.57
2023-03-26T04:26:38.237Z,1.20
2023-03-26T04:31:54.805Z,1.33
2023-03-26T04:37:03.627Z,1.90
2023-03-26T04:42:12.279Z,1.90
2023-03-26T04:47:23.630Z,1.73
2023-03-26T04:52:29.487Z,1.63
2023-03-26T04:57:44.760Z,2.00
2023-03-26T05:02:53.986Z,1.60
2023-03-26T05:08:00.890Z,1.70
2023-03-26T05:13:06.365Z,1.50
2023-03-26T05:18:13.539Z,1.77
2023-03-26T05:23:21.033Z,1.57
2023-03-26T05:28:28.419Z,2.33
2023-03-26T05:33:36.384Z,2.00
2023-03-26T05:38:46.501Z,1.60
2023-03-26T05:43:53.769Z,1.93
2023-03-26T05:49:01.056Z,1.50
2023-03-26T05:54:09.748Z,1.80
2023-03-26T05:59:35.484Z,1.50
2023-03-26T06:04:59.011Z,1.67
2023-03-26T06:10:18.528Z,2.17
2023-03-26T06:15:20.486Z,1.37
2023-03-26T06:20:27.698Z,1.60
2023-03-26T06:25:33.464Z,1.63
2023-03-26T06:30:44.039Z,2.00
2023-03-26T06:35:51.546Z,1.77
2023-03-26T06:41:08.053Z,1.60
2023-03-26T06:46:18.966Z,1.27
2023-03-26T06:51:26.512Z,1.40
2023-03-26T06:56:50.456Z,1.23
2023-03-26T07:01:57.688Z,1.17
2023-03-26T07:07:14.467Z,1.40
2023-03-26T07:12:38.068Z,1.53
2023-03-26T07:18:03.576Z,2.13
2023-03-26T07:23:14.820Z,1.30
2023-03-26T07:28:28.142Z,1.50
2023-03-26T07:33:47.530Z,1.47
2023-03-26T07:39:03.287Z,2.40
2023-03-26T07:44:28.850Z,1.50
2023-03-26T07:49:57.890Z,1.40
2023-03-26T07:55:09.245Z,1.17
2023-03-26T08:00:47.773Z,1.30
2023-03-26T08:06:08.698Z,1.60
2023-03-26T08:11:27.609Z,1.37
2023-03-26T08:16:48.133Z,1.40
2023-03-26T08:21:56.700Z,1.57
2023-03-26T08:27:05.425Z,1.60
2023-03-26T08:32:19.402Z,1.20
2023-03-26T08:37:26.656Z,1.10
2023-03-26T08:42:44.432Z,0.93
2023-03-26T08:48:09.524Z,0.90
2023-03-26T08:53:45.477Z,0.60
2023-03-26T08:59:15.188Z,0.60
2023-03-26T09:04:41.520Z,0.50
2023-03-26T09:09:50.339Z,0.70
2023-03-26T09:15:08.029Z,0.80
2023-03-26T09:20:45.921Z,0.60
2023-03-26T09:26:13.169Z,1.03
2023-03-26T09:31:27.552Z,0.90
2023-03-26T09:36:58.992Z,0.63
2023-03-26T09:42:11.687Z,0.67
2023-03-26T09:47:26.392Z,0.63
2023-03-26T09:52:43.943Z,1.00
2023-03-26T09:58:02.396Z,0.60
2023-03-26T10:03:24.726Z,0.90
2023-03-26T10:08:39.541Z,0.70
2023-03-26T10:13:50.814Z,0.80
2023-03-26T10:19:34.496Z,0.50
2023-03-26T10:25:14.864Z,0.80
2023-03-26T10:30:57.291Z,0.80
2023-03-26T10:36:27.016Z,0.70
2023-03-26T10:41:38.469Z,1.00
2023-03-26T10:47:01.873Z,0.70
2023-03-26T10:52:17.650Z,0.80
2023-03-26T10:57:50.055Z,0.80
2023-03-26T11:03:10.793Z,0.60
2023-03-26T11:08:31.208Z,0.87
2023-03-26T11:13:41.200Z,0.73
2023-03-26T11:19:10.935Z,1.10
2023-03-26T11:24:28.554Z,0.90
2023-03-26T11:29:59.363Z,1.13
2023-03-26T11:35:11.278Z,1.20
2023-03-26T11:40:38.142Z,1.20
2023-03-26T11:45:47.269Z,1.00
2023-03-26T11:50:58.647Z,0.90
2023-03-26T11:56:15.192Z,0.70
2023-03-26T12:01:30.992Z,0.73
2023-03-26T12:06:36.638Z,0.60
2023-03-26T12:11:44.585Z,0.67
2023-03-26T12:17:07.868Z,0.50
2023-03-26T12:22:31.530Z,1.10
2023-03-26T12:27:40.518Z,0.87
2023-03-26T12:32:47.155Z,0.73
2023-03-26T12:37:54.108Z,0.67
2023-03-26T12:44:46.779Z,0.60
2023-03-26T12:48:16.432Z,0.90
2023-03-26T12:53:44.790Z,0.60
2023-03-26T12:59:09.992Z,0.60
2023-03-26T13:04:27.657Z,0.90
2023-03-26T13:10:09.854Z,0.90
2023-03-26T13:15:33.220Z,0.90
2023-03-26T13:21:08.797Z,0.80
2023-03-26T13:26:34.444Z,0.80
2023-03-26T13:32:16.605Z,0.90
2023-03-26T13:37:42.002Z,0.83
2023-03-26T13:42:50.542Z,0.77
2023-03-26T13:47:59.378Z,0.87
2023-03-26T13:53:12.401Z,0.87
2023-03-26T13:58:26.376Z,1.57
2023-03-26T14:04:00.517Z,0.90
2023-03-26T14:09:18.311Z,0.90
2023-03-26T14:14:47.295Z,1.07
2023-03-26T14:20:22.994Z,0.90
2023-03-26T14:25:52.662Z,0.87
2023-03-26T14:31:13.481Z,0.80
2023-03-26T14:36:28.033Z,0.80
2023-03-26T14:41:45.803Z,0.60
2023-03-26T14:47:01.836Z,0.70
2023-03-26T14:52:19.072Z,0.73
2023-03-26T14:57:50.306Z,0.77
2023-03-26T15:03:22.626Z,1.10
2023-03-26T15:08:53.613Z,1.30
2023-03-26T15:14:26.620Z,0.90
2023-03-26T15:19:52.126Z,1.33
2023-03-26T15:25:19.653Z,0.90
2023-03-26T15:30:55.975Z,0.97
2023-03-26T15:36:09.447Z,1.10
2023-03-26T15:41:27.325Z,1.00
2023-03-26T15:46:45.165Z,1.90
2023-03-26T15:51:56.604Z,1.67
2023-03-26T15:57:11.180Z,1.80
2023-03-26T16:02:37.664Z,2.50
2023-03-26T16:07:48.936Z,2.20
2023-03-26T16:13:22.277Z,2.70
2023-03-26T16:18:31.286Z,2.07
2023-03-26T16:23:47.844Z,2.20
2023-03-26T16:28:55.811Z,2.40
2023-03-26T16:34:16.641Z,2.57
2023-03-26T16:39:27.891Z,2.80
2023-03-26T16:44:51.911Z,1.90
2023-03-26T16:50:27.751Z,1.93
2023-03-26T16:55:48.192Z,1.93
2023-03-26T17:01:02.566Z,2.63
2023-03-26T17:06:26.108Z,2.47
2023-03-26T17:11:40.514Z,2.20
2023-03-26T17:16:49.174Z,2.47
2023-03-26T17:22:17.581Z,2.43
2023-03-26T17:27:43.024Z,2.43
2023-03-26T17:33:07.347Z,3.13
2023-03-26T17:38:27.408Z,3.20
2023-03-26T17:43:52.341Z,3.17
2023-03-26T17:49:16.222Z,2.77
2023-03-26T17:54:34.061Z,3.13
2023-03-26T17:59:41.966Z,3.07
2023-03-26T18:04:50.341Z,3.17
2023-03-26T18:10:01.691Z,4.10
2023-03-26T18:15:16.232Z,2.80
2023-03-26T18:20:25.175Z,3.07
2023-03-26T18:25:34.180Z,3.33
2023-03-26T18:30:42.685Z,3.20
2023-03-26T18:35:54.120Z,3.67
2023-03-26T18:41:00.678Z,2.60
2023-03-26T18:46:07.074Z,2.80
2023-03-26T18:51:13.147Z,2.23
2023-03-26T18:56:39.709Z,2.33
2023-03-26T19:01:47.452Z,3.17
2023-03-26T19:06:56.942Z,3.00
2023-03-26T19:12:23.087Z,2.60
2023-03-26T19:17:31.580Z,2.13
2023-03-26T19:22:39.558Z,1.67
2023-03-26T19:27:45.885Z,1.70
2023-03-26T19:32:55.740Z,2.80
2023-03-26T19:38:02.853Z,2.40
2023-03-26T19:43:14.537Z,1.80
2023-03-26T19:48:45.614Z,2.10
2023-03-26T19:53:37.304Z,1.90
2023-03-26T19:58:43.606Z,2.10
2023-03-26T20:03:52.933Z,2.03
2023-03-26T20:08:59.066Z,2.80
2023-03-26T20:14:07.596Z,2.70
2023-03-26T20:19:14.575Z,1.73
2023-03-26T20:24:21.768Z,1.73
2023-03-26T20:29:29.593Z,1.30
2023-03-26T20:34:35.227Z,1.10
2023-03-26T20:39:41.669Z,1.23
2023-03-26T20:44:47.526Z,1.20
2023-03-26T20:49:53.098Z,1.00
2023-03-26T20:54:59.300Z,1.00
2023-03-26T21:00:23.455Z,1.10
2023-03-26T21:05:30.296Z,1.57
2023-03-26T21:10:36.535Z,0.77
2023-03-26T21:15:43.713Z,1.30
2023-03-26T21:20:52.195Z,1.10
2023-03-26T21:26:09.779Z,1.50
2023-03-26T21:31:20.736Z,1.33
2023-03-26T21:36:27.287Z,1.80
2023-03-26T21:41:36.565Z,2.20
2023-03-26T21:46:45.535Z,2.20
2023-03-26T21:51:51.677Z,1.97
2023-03-26T21:57:12.070Z,2.33
2023-03-26T22:02:26.515Z,2.53
2023-03-26T22:07:46.779Z,2.80
2023-03-26T22:12:53.940Z,2.20
2023-03-26T22:18:03.970Z,2.13
2023-03-26T22:23:10.936Z,2.37
2023-03-26T22:28:16.730Z,2.43
2023-03-26T22:33:22.401Z,3.97
2023-03-26T22:38:27.955Z,1.87
2023-03-26T22:43:33.456Z,2.00
2023-03-26T22:48:40.849Z,1.83
2023-03-26T22:53:46.708Z,1.50
2023-03-26T22:58:52.215Z,1.10
2023-03-26T23:03:58.123Z,1.40
2023-03-26T23:09:04.052Z,1.20
2023-03-26T23:14:10.034Z,0.80
2023-03-26T23:19:15.625Z,1.20
2023-03-26T23:24:21.246Z,1.00
2023-03-26T23:29:26.861Z,1.00
2023-03-26T23:34:32.509Z,1.23
2023-03-26T23:39:38.126Z,0.60
2023-03-26T23:44:45.338Z,0.73
2023-03-26T23:49:50.917Z,0.80
2023-03-26T23:54:59.091Z,0.90
